Time;durP1;ratioP1;P1;durP2;ratioP2;P2;SDS_P1;SDS_P2;PMS_P1;PMS_P2;Temp;Humidity;BMP_temperature;BMP_pressure;BME280_temperature;BME280_humidity;BME280_pressure;Samples;Min_cycle;Max_cycle;Signal;HPM_P1;HPM_P2
2021/08/14 00:00:21;;;;;;;8.50;6.80;;;;;;;19.30;64.78;100822.23;92844;1209;97398;-68
2021/08/14 00:02:49;;;;;;;7.60;6.80;;;;;;;19.26;65.11;100818.80;92792;1209;89526;-69
2021/08/14 00:04:59;;;;;;;8.30;7.40;;;;;;;19.25;64.91;100814.77;92789;1209;93873;-68
2021/08/14 00:07:07;;;;;;;10.30;6.60;;;;;;;19.21;65.02;100813.73;92798;1209;81554;-68
2021/08/14 00:09:15;;;;;;;7.40;6.60;;;;;;;19.18;65.09;100807.71;92862;1209;82231;-68
2021/08/14 00:11:22;;;;;;;8.80;6.60;;;;;;;19.17;65.08;100804.09;92802;1209;99935;-68
2021/08/14 00:13:30;;;;;;;7.60;6.70;;;;;;;19.17;65.11;100797.41;92822;1208;87869;-68
2021/08/14 00:15:38;;;;;;;7.80;6.60;;;;;;;19.15;65.27;100793.44;92830;1209;93546;-68
2021/08/14 00:17:45;;;;;;;7.50;6.60;;;;;;;19.12;65.33;100793.35;92832;1207;78302;-68
2021/08/14 00:19:53;;;;;;;10.20;6.80;;;;;;;19.10;65.36;100791.32;92851;1209;81332;-58
2021/08/14 00:22:00;;;;;;;8.20;6.60;;;;;;;19.06;65.56;100797.96;92810;1209;98911;-59
2021/08/14 00:24:09;;;;;;;9.60;6.40;;;;;;;19.01;65.49;100794.38;92810;1209;88018;-59
2021/08/14 00:26:20;;;;;;;7.90;6.40;;;;;;;18.99;65.56;100795.90;92838;1208;92685;-68
2021/08/14 00:28:27;;;;;;;8.50;6.70;;;;;;;18.96;65.62;100798.14;92811;1209;79875;-68
2021/08/14 00:30:35;;;;;;;7.00;6.10;;;;;;;18.94;65.69;100801.31;92824;1209;80018;-68
2021/08/14 00:32:43;;;;;;;7.60;6.80;;;;;;;18.95;65.79;100807.03;92803;1209;98385;-67
2021/08/14 00:34:50;;;;;;;8.70;6.60;;;;;;;18.93;65.92;100802.23;92817;1209;87892;-67
2021/08/14 00:36:58;;;;;;;7.40;6.70;;;;;;;18.91;65.96;100797.02;92817;1209;93948;-68
2021/08/14 00:39:06;;;;;;;8.00;6.60;;;;;;;18.92;65.94;100793.19;92808;1208;78579;-68
2021/08/14 00:41:13;;;;;;;8.40;6.70;;;;;;;18.88;65.97;100788.61;92839;1209;80258;-59
2021/08/14 00:43:22;;;;;;;9.00;6.40;;;;;;;18.85;66.04;100790.38;92810;1207;98219;-59
2021/08/14 00:45:29;;;;;;;8.20;6.50;;;;;;;18.81;66.08;100789.54;92810;1209;87827;-68
2021/08/14 00:47:43;;;;;;;9.10;7.30;;;;;;;18.83;66.15;100786.58;92828;1209;94153;-68
2021/08/14 00:49:52;;;;;;;;;;;;;;;18.84;66.15;100786.55;92839;1209;79902;-68
2021/08/14 00:52:00;;;;;;;8.80;6.90;;;;;;;18.84;66.24;100783.09;92804;1209;81563;-68
2021/08/14 00:54:08;;;;;;;9.00;6.90;;;;;;;18.83;66.29;100785.27;92819;1209;98591;-68
2021/08/14 00:56:22;;;;;;;8.10;7.10;;;;;;;18.81;66.34;100781.21;92828;1215;87629;-59
2021/08/14 00:58:30;;;;;;;8.90;7.40;;;;;;;18.78;66.41;100786.27;92809;1208;92972;-58
2021/08/14 01:00:39;;;;;;;7.30;6.50;;;;;;;18.78;66.35;100784.42;92767;1209;79640;-69
2021/08/14 01:02:48;;;;;;;9.80;7.50;;;;;;;18.77;66.42;100780.02;92790;1200;80539;-68
2021/08/14 01:04:56;;;;;;;8.70;6.70;;;;;;;18.77;66.50;100776.77;92843;1208;98715;-69
2021/08/14 01:07:05;;;;;;;11.50;7.40;;;;;;;18.76;66.57;100774.27;92814;1208;88445;-69
2021/08/14 01:09:15;;;;;;;7.80;7.00;;;;;;;18.74;66.68;100772.14;92802;1209;94580;-69
2021/08/14 01:11:24;;;;;;;11.00;7.50;;;;;;;18.70;66.70;100772.49;92812;1208;79443;-59
2021/08/14 01:13:35;;;;;;;7.40;6.60;;;;;;;18.69;66.72;100773.81;92819;1209;83039;-59
2021/08/14 01:15:47;;;;;;;10.10;7.10;;;;;;;18.65;66.83;100772.02;92825;1208;98932;-59
2021/08/14 01:17:55;;;;;;;11.10;7.50;;;;;;;18.64;66.81;100771.49;92821;1208;86713;-60
2021/08/14 01:20:03;;;;;;;9.20;7.60;;;;;;;18.64;66.90;100765.02;92808;1209;95034;-58
2021/08/14 01:22:14;;;;;;;7.80;6.70;;;;;;;18.63;66.97;100763.29;92789;1208;79134;-59
2021/08/14 01:24:23;;;;;;;7.90;7.00;;;;;;;18.61;67.04;100767.16;92798;1208;81171;-58
2021/08/14 01:26:34;;;;;;;9.40;7.20;;;;;;;18.61;67.05;100763.75;92814;1208;97948;-68
2021/08/14 01:28:43;;;;;;;8.10;7.00;;;;;;;18.61;67.14;100762.61;92801;1208;87815;-68
2021/08/14 01:30:51;;;;;;;7.90;7.00;;;;;;;18.58;67.29;100762.23;92835;1208;92522;-59
2021/08/14 01:32:59;;;;;;;9.00;6.80;;;;;;;18.53;67.37;100764.62;92800;1208;81031;-59
2021/08/14 01:35:09;;;;;;;8.10;7.30;;;;;;;18.53;67.29;100760.20;92821;1208;80320;-68
2021/08/14 01:37:16;;;;;;;9.80;6.80;;;;;;;18.52;67.42;100760.77;92827;1208;98159;-68
2021/08/14 01:39:24;;;;;;;8.70;6.70;;;;;;;18.50;67.59;100758.73;92804;1209;87027;-68
2021/08/14 01:41:32;;;;;;;9.60;7.80;;;;;;;18.47;67.61;100757.10;92796;1208;95051;-59
2021/08/14 01:44:00;;;;;;;8.20;7.30;;;;;;;18.46;67.67;100756.06;92802;1209;79196;-59
2021/08/14 01:46:07;;;;;;;7.90;6.50;;;;;;;18.41;67.76;100755.92;92799;1202;80910;-69
2021/08/14 01:48:15;;;;;;;13.50;7.30;;;;;;;18.34;67.90;100755.52;92800;1209;97531;-68
2021/08/14 01:50:22;;;;;;;10.40;7.00;;;;;;;18.33;67.96;100750.52;92840;1209;88404;-59
2021/08/14 01:52:30;;;;;;;8.20;7.30;;;;;;;18.33;67.98;100747.11;92812;1208;93490;-59
2021/08/14 01:54:38;;;;;;;10.00;7.30;;;;;;;18.30;68.03;100741.47;92814;1208;80401;-62
2021/08/14 01:56:47;;;;;;;8.00;7.20;;;;;;;18.25;68.20;100746.16;92840;1209;82171;-68
2021/08/14 01:58:55;;;;;;;8.60;7.40;;;;;;;18.23;68.22;100744.84;92836;1209;97736;-70
2021/08/14 02:01:02;;;;;;;9.30;7.00;;;;;;;18.20;68.33;100743.38;92799;1209;88162;-68
2021/08/14 02:03:10;;;;;;;8.80;7.10;;;;;;;18.17;68.41;100743.67;92796;1208;94445;-68
2021/08/14 02:05:18;;;;;;;8.30;7.20;;;;;;;18.17;68.39;100739.25;92811;1209;80534;-68
2021/08/14 02:07:25;;;;;;;8.20;7.30;;;;;;;18.18;68.44;100737.38;92842;1209;81034;-68
2021/08/14 02:09:35;;;;;;;7.70;7.00;;;;;;;18.17;68.55;100736.08;92800;1209;97709;-68
2021/08/14 02:11:43;;;;;;;8.70;7.40;;;;;;;18.16;68.63;100731.19;92810;1209;88109;-59
2021/08/14 02:13:52;;;;;;;10.50;7.60;;;;;;;18.11;68.73;100728.27;92796;1201;92060;-58
2021/08/14 02:16:01;;;;;;;11.20;7.40;;;;;;;18.08;68.70;100721.44;92838;1208;80211;-58
2021/08/14 02:18:08;;;;;;;11.20;7.80;;;;;;;18.08;68.77;100722.37;92793;1208;81535;-60
2021/08/14 02:20:17;;;;;;;7.40;6.70;;;;;;;18.07;68.84;100722.14;92789;1209;98163;-58
2021/08/14 02:22:27;;;;;;;8.20;6.90;;;;;;;18.02;68.99;100720.50;92840;1209;86552;-59
2021/08/14 02:24:36;;;;;;;8.70;7.60;;;;;;;17.96;69.10;100719.80;92782;1208;93950;-59
2021/08/14 02:26:44;;;;;;;8.00;7.20;;;;;;;17.93;69.14;100720.63;92843;1207;80096;-68
2021/08/14 02:28:52;;;;;;;9.70;7.70;;;;;;;17.91;69.20;100721.75;92806;1208;80485;-68
2021/08/14 02:31:01;;;;;;;8.70;7.80;;;;;;;17.84;69.35;100720.79;92838;1209;98976;-68
2021/08/14 02:33:09;;;;;;;9.40;7.40;;;;;;;17.78;69.47;100714.93;92823;1209;88276;-69
2021/08/14 02:35:19;;;;;;;11.80;8.20;;;;;;;17.74;69.67;100714.64;92802;1209;93603;-68
2021/08/14 02:37:27;;;;;;;9.60;7.60;;;;;;;17.68;69.76;100712.66;92801;1209;78294;-69
2021/08/14 02:39:35;;;;;;;8.40;6.90;;;;;;;17.66;69.80;100705.66;92823;1209;81667;-69
2021/08/14 02:41:43;;;;;;;9.40;7.30;;;;;;;17.62;69.98;100701.48;92857;1209;98466;-68
2021/08/14 02:43:51;;;;;;;8.30;7.20;;;;;;;17.62;70.10;100705.37;92859;1206;87177;-69
2021/08/14 02:46:00;;;;;;;9.40;7.40;;;;;;;17.64;70.10;100702.48;92839;1200;92966;-59
2021/08/14 02:48:09;;;;;;;8.10;7.30;;;;;;;17.68;70.20;100702.55;92834;1208;79028;-59
2021/08/14 02:50:19;;;;;;;10.00;7.80;;;;;;;17.69;70.23;100694.93;92827;1209;81403;-59
2021/08/14 02:52:27;;;;;;;10.90;8.10;;;;;;;17.68;70.28;100695.41;92804;1209;97025;-58
2021/08/14 02:54:37;;;;;;;9.60;8.30;;;;;;;17.69;70.32;100697.84;92838;1209;86593;-59
2021/08/14 02:56:44;;;;;;;9.10;7.30;;;;;;;17.68;70.40;100695.79;92801;1209;92696;-68
2021/08/14 02:58:52;;;;;;;9.90;7.40;;;;;;;17.66;70.45;100699.92;92815;1208;79916;-68
2021/08/14 03:01:02;;;;;;;9.00;7.70;;;;;;;17.65;70.55;100700.50;92831;1208;80358;-59
2021/08/14 03:03:10;;;;;;;8.50;7.20;;;;;;;17.66;70.61;100701.67;92803;1208;98973;-59
2021/08/14 03:05:17;;;;;;;8.50;7.50;;;;;;;17.65;70.65;100702.27;92813;1209;87823;-59
2021/08/14 03:07:25;;;;;;;8.60;7.70;;;;;;;17.67;70.73;100703.66;92790;1208;94249;-59
2021/08/14 03:09:32;;;;;;;8.10;7.30;;;;;;;17.68;70.76;100699.06;92796;1209;78813;-59
2021/08/14 03:11:40;;;;;;;9.00;7.80;;;;;;;17.72;70.69;100699.13;92822;1208;83133;-69
2021/08/14 03:13:50;;;;;;;9.20;7.60;;;;;;;17.74;70.63;100696.33;92793;1208;99794;-67
2021/08/14 03:15:58;;;;;;;11.10;8.00;;;;;;;17.74;70.74;100692.62;92832;1208;87329;-68
2021/08/14 03:18:06;;;;;;;9.00;7.40;;;;;;;17.72;70.73;100694.20;92799;1209;94362;-68
2021/08/14 03:20:15;;;;;;;9.30;8.00;;;;;;;17.69;70.79;100689.09;92799;1208;80956;-68
2021/08/14 03:22:23;;;;;;;12.80;7.50;;;;;;;17.68;70.82;100687.10;92844;1209;81449;-68
2021/08/14 03:24:31;;;;;;;10.70;7.90;;;;;;;17.71;70.87;100687.61;92807;1209;98049;-68
2021/08/14 03:26:38;;;;;;;9.50;7.90;;;;;;;17.73;70.97;100691.07;92836;1208;85907;-69
2021/08/14 03:28:46;;;;;;;11.50;8.10;;;;;;;17.72;71.06;100691.13;92814;1208;92672;-68
2021/08/14 03:30:53;;;;;;;8.50;7.50;;;;;;;17.74;71.02;100689.55;92811;1208;78369;-69
2021/08/14 03:33:01;;;;;;;8.80;7.90;;;;;;;17.77;71.02;100690.36;92842;1209;81356;-69
2021/08/14 03:35:11;;;;;;;8.70;7.80;;;;;;;17.79;71.04;100686.04;92820;1209;99124;-68
2021/08/14 03:37:22;;;;;;;10.20;7.50;;;;;;;17.83;71.09;100681.69;92835;1209;85731;-68
2021/08/14 03:39:29;;;;;;;11.40;8.90;;;;;;;17.84;71.14;100680.33;92833;1209;94107;-69
2021/08/14 03:41:38;;;;;;;8.50;7.60;;;;;;;17.83;71.14;100681.11;92800;1209;79728;-68
2021/08/14 03:43:45;;;;;;;10.50;8.20;;;;;;;17.85;71.14;100682.01;92808;1208;81804;-68
2021/08/14 03:45:54;;;;;;;9.40;7.70;;;;;;;17.86;71.16;100687.46;92821;1208;97543;-69
2021/08/14 03:48:01;;;;;;;9.30;7.70;;;;;;;17.89;71.24;100691.79;92846;1209;87547;-69
2021/08/14 03:50:11;;;;;;;8.90;8.00;;;;;;;17.89;71.23;100695.62;92847;1209;93849;-68
2021/08/14 03:52:23;;;;;;;8.80;7.90;;;;;;;17.90;71.22;100700.02;92832;1209;79031;-69
2021/08/14 03:54:31;;;;;;;9.90;7.90;;;;;;;17.92;71.26;100701.34;92818;1209;82453;-69
2021/08/14 03:56:38;;;;;;;8.80;7.90;;;;;;;17.94;71.27;100696.30;92798;1209;100036;-59
2021/08/14 03:58:46;;;;;;;8.70;7.30;;;;;;;17.99;71.22;100690.19;92822;1209;87352;-59
2021/08/14 04:00:53;;;;;;;8.40;7.60;;;;;;;18.06;71.30;100690.16;92812;1209;92878;-59
2021/08/14 04:03:01;;;;;;;9.30;8.30;;;;;;;18.12;71.27;100692.02;92806;1209;79887;-60
2021/08/14 04:05:13;;;;;;;8.50;7.70;;;;;;;18.14;71.20;100692.30;92884;1209;81980;-59
2021/08/14 04:07:21;;;;;;;9.70;8.20;;;;;;;18.18;71.27;100693.66;92822;1209;98012;-59
2021/08/14 04:09:28;;;;;;;10.50;7.40;;;;;;;18.26;71.21;100697.77;92801;1209;87472;-59
2021/08/14 04:11:36;;;;;;;9.20;7.70;;;;;;;18.37;71.25;100697.23;92810;1209;94346;-69
2021/08/14 04:13:43;;;;;;;10.20;8.40;;;;;;;18.46;71.17;100694.48;92822;1209;79485;-69
2021/08/14 04:15:51;;;;;;;11.50;8.00;;;;;;;18.54;71.10;100697.72;92801;1209;80111;-68
2021/08/14 04:17:59;;;;;;;10.90;8.10;;;;;;;18.65;71.02;100698.34;92848;1208;99076;-69
2021/08/14 04:20:10;;;;;;;9.20;7.90;;;;;;;18.74;70.98;100701.86;92811;1209;87845;-68
2021/08/14 04:22:20;;;;;;;9.60;7.70;;;;;;;18.87;70.90;100698.62;92867;1209;94356;-68
2021/08/14 04:24:28;;;;;;;10.80;7.80;;;;;;;19.02;70.73;100698.60;92811;1209;79282;-68
2021/08/14 04:26:36;;;;;;;8.90;7.80;;;;;;;19.15;70.73;100696.41;92839;1209;82479;-59
2021/08/14 04:28:43;;;;;;;9.70;8.60;;;;;;;19.26;70.55;100697.66;92788;1209;98725;-59
2021/08/14 04:30:51;;;;;;;9.40;8.30;;;;;;;19.38;70.34;100698.17;92782;1209;88129;-68
2021/08/14 04:33:02;;;;;;;10.90;8.20;;;;;;;19.48;70.14;100695.23;92794;1209;92598;-68
2021/08/14 04:35:13;;;;;;;9.10;8.20;;;;;;;19.58;70.04;100694.77;92812;1209;79657;-68
2021/08/14 04:37:20;;;;;;;9.00;7.60;;;;;;;19.64;69.91;100695.97;92842;1209;82187;-69
2021/08/14 04:39:28;;;;;;;9.40;7.70;;;;;;;19.75;69.82;100697.46;92811;1208;98292;-68
2021/08/14 04:41:35;;;;;;;9.50;7.70;;;;;;;19.88;69.58;100701.03;92819;1209;88172;-68
2021/08/14 04:43:43;;;;;;;10.80;7.30;;;;;;;20.25;69.58;100695.14;92793;1208;93469;-68
2021/08/14 04:45:51;;;;;;;8.90;8.00;;;;;;;20.39;68.98;100698.26;92823;1209;79687;-68
2021/08/14 04:47:58;;;;;;;9.70;7.90;;;;;;;20.44;69.01;100702.70;92837;1209;82459;-68
2021/08/14 04:50:08;;;;;;;9.00;7.70;;;;;;;20.63;68.93;100702.06;92837;1209;98817;-59
2021/08/14 04:52:16;;;;;;;8.20;7.20;;;;;;;21.03;68.49;100702.23;92826;1208;88278;-59
2021/08/14 04:54:23;;;;;;;10.60;8.20;;;;;;;21.19;68.51;100703.95;92793;1209;93674;-59
2021/08/14 04:56:31;;;;;;;7.80;7.00;;;;;;;21.74;68.13;100701.48;92812;1208;78662;-68
2021/08/14 04:58:41;;;;;;;10.90;6.80;;;;;;;22.92;67.51;100699.95;92837;1208;82368;-69
2021/08/14 05:00:52;;;;;;;9.10;7.30;;;;;;;23.78;65.80;100698.08;92808;1208;98512;-59
2021/08/14 05:02:59;;;;;;;8.70;7.70;;;;;;;23.66;64.54;100700.55;92814;1208;86844;-60
2021/08/14 05:05:09;;;;;;;9.00;7.60;;;;;;;23.46;64.25;100701.92;92802;1209;94267;-69
2021/08/14 05:07:20;;;;;;;9.50;7.00;;;;;;;23.40;63.91;100701.17;92820;1209;79845;-69
2021/08/14 05:09:28;;;;;;;8.90;6.90;;;;;;;23.41;63.74;100701.35;92810;1209;81763;-69
2021/08/14 05:11:35;;;;;;;10.30;6.90;;;;;;;23.55;63.62;100702.27;92838;1209;98570;-59
2021/08/14 05:13:43;;;;;;;9.20;7.30;;;;;;;23.55;63.01;100700.21;92817;1209;88761;-59
2021/08/14 05:15:50;;;;;;;13.50;7.50;;;;;;;23.30;62.88;100701.36;92840;1209;93697;-68
2021/08/14 05:17:58;;;;;;;10.80;7.40;;;;;;;23.13;63.06;100701.67;92808;1209;78747;-69
2021/08/14 05:20:08;;;;;;;11.20;7.90;;;;;;;23.09;63.01;100704.45;92854;1209;80385;-59
2021/08/14 05:22:16;;;;;;;9.40;8.10;;;;;;;23.07;63.27;100707.08;92821;1209;98534;-59
2021/08/14 05:24:27;;;;;;;8.90;7.70;;;;;;;23.21;63.38;100704.43;92817;1209;86703;-59
2021/08/14 05:26:37;;;;;;;8.20;7.40;;;;;;;23.44;63.00;100706.10;92823;1209;94876;-68
2021/08/14 05:28:45;;;;;;;14.10;8.80;;;;;;;23.32;62.90;100700.71;92801;1208;79712;-69
2021/08/14 05:30:52;;;;;;;10.20;8.30;;;;;;;23.13;62.81;100696.77;92790;1208;80462;-59
2021/08/14 05:33:03;;;;;;;10.20;7.20;;;;;;;22.97;63.08;100698.68;92797;1208;96791;-58
2021/08/14 05:35:12;;;;;;;11.80;7.90;;;;;;;22.95;63.10;100693.48;92807;1208;88216;-58
2021/08/14 05:37:20;;;;;;;10.80;7.80;;;;;;;22.87;63.06;100698.05;92818;1209;94028;-59
2021/08/14 05:39:30;;;;;;;8.70;7.70;;;;;;;22.75;63.41;100700.82;92801;1209;79366;-59
2021/08/14 05:41:42;;;;;;;9.40;7.40;;;;;;;22.65;63.45;100698.67;92818;1209;81500;-58
2021/08/14 05:43:49;;;;;;;9.10;8.00;;;;;;;22.56;63.71;100696.86;92824;1209;98451;-59
2021/08/14 05:45:57;;;;;;;11.10;7.80;;;;;;;22.53;63.73;100695.01;92821;1209;87549;-70
2021/08/14 05:48:07;;;;;;;9.30;8.00;;;;;;;22.47;63.63;100694.23;92814;1209;93519;-69
2021/08/14 05:50:15;;;;;;;8.60;7.60;;;;;;;22.46;64.16;100694.49;92831;1209;77971;-69
2021/08/14 05:52:23;;;;;;;9.30;7.40;;;;;;;22.48;64.30;100692.69;92839;1209;81325;-69
2021/08/14 05:54:35;;;;;;;9.30;7.60;;;;;;;22.52;64.29;100689.27;92828;1209;99152;-69
2021/08/14 05:56:47;;;;;;;9.40;7.90;;;;;;;22.76;64.25;100690.02;92827;1209;87628;-69
2021/08/14 05:58:54;;;;;;;9.60;7.80;;;;;;;23.13;64.19;100693.28;92810;1209;95459;-68
2021/08/14 06:01:02;;;;;;;9.00;7.60;;;;;;;23.60;64.03;100690.09;92833;1208;79919;-69
2021/08/14 06:03:09;;;;;;;10.00;8.20;;;;;;;24.14;63.58;100696.20;92818;1208;81878;-69
2021/08/14 06:05:17;;;;;;;8.80;7.90;;;;;;;24.47;62.89;100685.73;92820;1215;98758;-59
2021/08/14 06:07:24;;;;;;;9.40;7.70;;;;;;;24.63;62.24;100693.16;92839;1209;87884;-59
2021/08/14 06:09:34;;;;;;;12.10;8.10;;;;;;;24.68;61.91;100691.61;92819;1209;94601;-59
2021/08/14 06:11:42;;;;;;;11.30;7.90;;;;;;;24.72;61.83;100693.95;92813;1209;78888;-69
2021/08/14 06:13:53;;;;;;;10.50;8.00;;;;;;;24.93;61.49;100695.20;92822;1200;80541;-69
2021/08/14 06:16:02;;;;;;;9.50;7.90;;;;;;;25.13;61.15;100692.14;92824;1208;99242;-69
2021/08/14 06:18:13;;;;;;;10.50;8.00;;;;;;;25.19;60.91;100692.08;92815;1209;88410;-69
2021/08/14 06:20:20;;;;;;;11.50;8.30;;;;;;;25.27;60.66;100692.97;92805;1209;94519;-59
2021/08/14 06:22:28;;;;;;;15.30;9.00;;;;;;;25.30;60.37;100694.05;92804;1209;79772;-59
2021/08/14 06:24:38;;;;;;;12.20;8.50;;;;;;;25.40;60.20;100692.98;92822;1209;80622;-60
2021/08/14 06:26:46;;;;;;;9.30;8.30;;;;;;;25.56;59.95;100697.13;92827;1209;98145;-70
2021/08/14 06:28:53;;;;;;;10.60;8.60;;;;;;;25.64;59.90;100700.75;92842;1209;88677;-70
2021/08/14 06:31:01;;;;;;;9.70;8.80;;;;;;;25.74;59.67;100706.09;92841;1209;92240;-60
2021/08/14 06:33:11;;;;;;;12.00;8.20;;;;;;;25.88;59.35;100706.88;92807;1209;78443;-58
2021/08/14 06:35:22;;;;;;;10.80;8.20;;;;;;;25.99;59.48;100704.71;92816;1209;80456;-69
2021/08/14 06:37:30;;;;;;;10.70;8.10;;;;;;;26.07;59.13;100706.85;92803;1209;99346;-69
2021/08/14 06:39:41;;;;;;;12.20;8.80;;;;;;;26.28;59.09;100701.73;92800;1209;88318;-68
2021/08/14 06:41:49;;;;;;;11.30;8.60;;;;;;;26.52;58.67;100698.25;92778;1208;94144;-69
2021/08/14 06:43:56;;;;;;;11.30;8.70;;;;;;;26.83;58.37;100695.66;92809;1209;78523;-69
2021/08/14 06:46:04;;;;;;;12.10;9.00;;;;;;;27.05;58.12;100698.65;92833;1209;81276;-59
2021/08/14 06:48:14;;;;;;;9.50;8.10;;;;;;;27.06;57.99;100698.87;92812;1209;98889;-60
2021/08/14 06:50:22;;;;;;;9.90;8.10;;;;;;;26.92;57.43;100698.59;92842;1209;88011;-60
2021/08/14 06:52:30;;;;;;;10.20;8.20;;;;;;;26.68;57.41;100699.36;92804;1209;94254;-59
2021/08/14 06:54:40;;;;;;;11.20;8.80;;;;;;;26.49;57.77;100698.16;92819;1209;79626;-60
2021/08/14 06:56:48;;;;;;;10.80;8.50;;;;;;;26.46;57.93;100695.48;92812;1209;82746;-69
2021/08/14 06:58:56;;;;;;;9.80;8.20;;;;;;;26.38;58.06;100696.07;92792;1209;99501;-69
2021/08/14 07:01:03;;;;;;;10.80;8.40;;;;;;;26.36;58.18;100695.82;92801;1209;88408;-59
2021/08/14 07:03:11;;;;;;;9.10;8.10;;;;;;;26.47;58.42;100700.06;92791;1202;92564;-59
2021/08/14 07:05:19;;;;;;;10.90;8.10;;;;;;;26.54;58.24;100702.69;92797;1209;79811;-59
2021/08/14 07:07:26;;;;;;;12.80;9.00;;;;;;;26.60;58.39;100697.70;92816;1209;82006;-59
2021/08/14 07:09:36;;;;;;;12.10;8.70;;;;;;;26.66;58.35;100696.88;92812;1209;97539;-60
2021/08/14 07:11:45;;;;;;;12.50;8.50;;;;;;;26.74;57.85;100691.06;92826;1209;87285;-59
2021/08/14 07:13:53;;;;;;;10.80;9.10;;;;;;;26.97;57.58;100693.66;92840;1208;94318;-59
2021/08/14 07:16:01;;;;;;;12.80;9.30;;;;;;;27.26;57.09;100694.11;92822;1208;78662;-69
2021/08/14 07:18:08;;;;;;;10.20;8.60;;;;;;;27.55;57.19;100699.45;92827;1209;81133;-69
2021/08/14 07:20:17;;;;;;;13.50;9.10;;;;;;;27.75;57.01;100696.79;92804;1209;98996;-59
2021/08/14 07:22:24;;;;;;;10.70;8.50;;;;;;;27.86;56.57;100697.65;92846;1209;88413;-60
2021/08/14 07:24:33;;;;;;;12.80;8.80;;;;;;;27.85;56.54;100697.50;92817;1209;93879;-59
2021/08/14 07:26:41;;;;;;;12.80;8.70;;;;;;;27.91;56.28;100700.13;92836;1209;79353;-60
2021/08/14 07:28:49;;;;;;;13.40;8.80;;;;;;;27.97;56.18;100702.95;92831;1209;81719;-60
2021/08/14 07:30:57;;;;;;;11.90;9.20;;;;;;;27.93;55.97;100703.89;92804;1208;100093;-59
2021/08/14 07:33:05;;;;;;;9.90;8.50;;;;;;;27.93;56.35;100706.40;92816;1209;87891;-59
2021/08/14 07:35:14;;;;;;;14.50;8.50;;;;;;;28.16;56.38;100704.46;92825;1209;93084;-69
2021/08/14 07:37:22;;;;;;;14.20;9.50;;;;;;;28.61;56.34;100709.60;92811;1209;81040;-69
2021/08/14 07:39:30;;;;;;;11.40;8.30;;;;;;;29.01;55.68;100701.25;92821;1209;81413;-70
2021/08/14 07:41:37;;;;;;;10.70;9.20;;;;;;;29.59;55.35;100698.92;92796;1209;98928;-59
2021/08/14 07:43:45;;;;;;;9.90;8.20;;;;;;;30.29;54.37;100689.98;92828;1209;86755;-59
2021/08/14 07:45:52;;;;;;;14.80;9.60;;;;;;;31.06;53.86;100691.22;92792;1209;94664;-59
2021/08/14 07:48:03;;;;;;;9.40;8.30;;;;;;;32.20;52.59;100694.73;92810;1209;79504;-59
2021/08/14 07:50:17;;;;;;;11.80;8.50;;;;;;;32.65;50.78;100694.00;92843;1209;82010;-60
2021/08/14 07:52:24;;;;;;;10.90;8.80;;;;;;;32.75;50.15;100691.50;92838;1209;98758;-59
2021/08/14 07:54:33;;;;;;;9.10;8.20;;;;;;;33.19;49.55;100690.63;92795;1209;88448;-59
2021/08/14 07:56:41;;;;;;;9.70;8.40;;;;;;;33.83;48.49;100689.41;92780;1208;94584;-69
2021/08/14 07:58:48;;;;;;;10.30;8.90;;;;;;;34.51;47.90;100692.67;92800;1209;79745;-70
2021/08/14 08:00:56;;;;;;;11.90;8.40;;;;;;;35.04;46.60;100696.23;92848;1209;81382;-60
2021/08/14 08:03:04;;;;;;;9.80;8.80;;;;;;;35.26;46.08;100700.89;92828;1209;98772;-60
2021/08/14 08:05:13;;;;;;;12.30;9.20;;;;;;;35.49;45.36;100696.88;92834;1209;86485;-70
2021/08/14 08:07:20;;;;;;;9.40;8.50;;;;;;;35.93;44.64;100691.75;92807;1209;93435;-71
2021/08/14 08:09:28;;;;;;;10.80;8.60;;;;;;;36.40;43.91;100694.73;92801;1209;79387;-69
2021/08/14 08:11:39;;;;;;;8.60;7.80;;;;;;;36.96;43.07;100690.71;92822;1209;80772;-73
2021/08/14 08:13:46;;;;;;;8.90;8.00;;;;;;;37.25;42.08;100694.02;92829;1209;99113;-73
2021/08/14 08:15:57;;;;;;;8.00;7.30;;;;;;;37.42;41.31;100693.94;92821;1208;87389;-73
2021/08/14 08:18:04;;;;;;;9.30;8.40;;;;;;;37.18;40.91;100692.22;92805;1209;95262;-73
2021/08/14 08:20:16;;;;;;;9.40;8.50;;;;;;;37.06;40.82;100702.44;92805;1209;80003;-60
2021/08/14 08:22:24;;;;;;;8.60;7.70;;;;;;;36.91;40.79;100697.79;92838;1208;81798;-60
2021/08/14 08:24:35;;;;;;;9.80;8.10;;;;;;;37.08;40.69;100693.02;92801;1209;98403;-61
2021/08/14 08:26:42;;;;;;;8.80;7.90;;;;;;;37.30;39.97;100695.38;92845;1209;88018;-62
2021/08/14 08:28:53;;;;;;;9.40;8.50;;;;;;;37.38;39.90;100692.70;92814;1209;95143;-59
2021/08/14 08:31:01;;;;;;;9.70;8.70;;;;;;;37.57;39.21;100689.91;92799;1209;81044;-61
2021/08/14 08:33:08;;;;;;;9.20;8.10;;;;;;;37.60;39.25;100689.92;92823;1202;80329;-61
2021/08/14 08:35:16;;;;;;;9.50;8.30;;;;;;;37.77;38.66;100685.86;92795;1209;98149;-61
2021/08/14 08:37:24;;;;;;;8.20;7.40;;;;;;;37.59;38.26;100688.38;92812;1209;88031;-61
2021/08/14 08:39:35;;;;;;;9.60;8.00;;;;;;;37.56;38.36;100687.23;92804;1208;93430;-60
2021/08/14 08:41:46;;;;;;;9.00;8.10;;;;;;;37.63;38.27;100684.05;92803;1209;78275;-73
2021/08/14 08:43:53;;;;;;;8.90;8.00;;;;;;;37.68;37.90;100681.67;92825;1209;81683;-73
2021/08/14 08:46:01;;;;;;;9.50;8.60;;;;;;;37.79;37.57;100679.79;92826;1209;100016;-61
2021/08/14 08:48:17;;;;;;;8.40;7.60;;;;;;;37.82;38.03;100680.31;92777;1209;86843;-63
2021/08/14 08:50:28;;;;;;;8.40;7.70;;;;;;;37.55;37.68;100686.51;92810;1208;94478;-61
2021/08/14 08:52:35;;;;;;;9.60;7.70;;;;;;;37.63;38.25;100687.17;92832;1208;78110;-61
2021/08/14 08:54:43;;;;;;;8.70;7.90;;;;;;;37.65;38.17;100683.78;92826;1209;81206;-79
2021/08/14 08:56:51;;;;;;;8.10;7.30;;;;;;;37.93;37.65;100690.04;92813;1209;97313;-73
2021/08/14 08:58:58;;;;;;;10.70;8.50;;;;;;;37.90;36.83;100689.50;92807;1209;87663;-76
2021/08/14 09:01:09;;;;;;;8.60;7.80;;;;;;;37.78;36.41;100691.93;92804;1209;94392;-67
2021/08/14 09:03:18;;;;;;;10.30;8.60;;;;;;;37.86;36.54;100690.61;92813;1209;80937;-67
2021/08/14 09:05:26;;;;;;;8.70;7.90;;;;;;;37.90;36.35;100686.91;92872;1208;80225;-67
2021/08/14 09:07:34;;;;;;;9.30;7.90;;;;;;;37.99;36.28;100687.14;92799;1209;98988;-66
2021/08/14 09:09:45;;;;;;;8.30;7.40;;;;;;;37.97;35.86;100684.66;92835;1209;87345;-75
2021/08/14 09:12:00;;;;;;;9.10;8.20;;;;;;;37.20;36.06;100689.06;92813;1202;93303;-75
2021/08/14 09:14:08;;;;;;;10.40;8.50;;;;;;;36.55;36.27;100694.54;92814;1209;78834;-75
2021/08/14 09:16:24;;;;;;;9.60;8.10;;;;;;;36.33;36.94;100696.98;92861;1209;81131;-74
2021/08/14 09:18:51;;;;;;;8.70;7.80;;;;;;;36.44;37.20;100692.83;92835;1209;100035;-82
2021/08/14 09:20:59;;;;;;;9.60;8.60;;;;;;;36.68;37.08;100693.90;92835;1208;86985;-78
2021/08/14 09:23:10;;;;;;;9.20;8.30;;;;;;;36.68;36.78;100692.70;92798;1209;93675;-72
2021/08/14 09:25:21;;;;;;;9.70;8.70;;;;;;;36.49;37.04;100693.72;92823;1209;79747;-74
2021/08/14 09:27:28;;;;;;;8.60;7.80;;;;;;;36.33;37.02;100685.16;92852;1209;81264;-78
2021/08/14 09:29:47;;;;;;;8.70;7.90;;;;;;;36.14;37.29;100685.37;92817;1209;99356;-77
2021/08/14 09:31:55;;;;;;;8.60;7.70;;;;;;;35.87;37.43;100682.21;92842;1207;86879;-72
2021/08/14 09:34:21;;;;;;;9.80;8.20;;;;;;;35.73;37.96;100681.02;92816;1209;93933;-76
2021/08/14 09:36:32;;;;;;;10.30;8.10;;;;;;;35.43;38.20;100677.23;92832;1209;78104;-78
2021/08/14 09:38:47;;;;;;;10.30;8.10;;;;;;;35.42;38.41;100678.27;92885;1208;81214;-81
2021/08/14 09:41:10;;;;;;;9.70;8.60;;;;;;;35.25;38.38;100677.73;92894;1208;97731;-79
2021/08/14 09:43:35;;;;;;;9.80;8.80;;;;;;;34.97;38.66;100676.87;92904;1209;86943;-80
2021/08/14 09:45:55;;;;;;;9.10;8.30;;;;;;;34.58;39.58;100677.85;92898;1208;92880;-69
2021/08/14 09:48:25;;;;;;;9.00;8.10;;;;;;;34.26;39.83;100674.36;92850;1209;80195;-69
2021/08/14 09:50:38;;;;;;;9.60;8.60;;;;;;;33.99;40.32;100677.27;92841;1209;82412;-67
2021/08/14 09:52:47;;;;;;;8.60;7.70;;;;;;;33.74;40.78;100680.71;92819;1209;99427;-67
2021/08/14 09:54:56;;;;;;;9.80;8.90;;;;;;;33.53;41.10;100677.30;92846;1209;88589;-68
2021/08/14 09:57:18;;;;;;;10.20;8.90;;;;;;;33.56;41.00;100675.76;92808;1200;92676;-68